Time;durP1;ratioP1;P1;durP2;ratioP2;P2;SDS_P1;SDS_P2;PMS_P1;PMS_P2;Temp;Humidity;BMP_temperature;BMP_pressure;BME280_temperature;BME280_humidity;BME280_pressure;Samples;Min_cycle;Max_cycle;Signal;HPM_P1;HPM_P2
2021/08/05 00:00:04;;;;;;;0.80;0.80;;;;;;;18.88;70.11;98442.88;5069227;28;43045;-85
2021/08/05 00:02:32;;;;;;;0.63;0.63;;;;;;;18.83;69.74;98442.50;5052281;28;41348;-84
2021/08/05 00:04:59;;;;;;;0.50;0.50;;;;;;;18.90;69.76;98457.00;5052076;28;40100;-84
2021/08/05 00:07:28;;;;;;;0.97;0.73;;;;;;;18.85;69.77;98459.28;5052503;28;40761;-85
2021/08/05 00:09:56;;;;;;;1.13;0.50;;;;;;;18.82;69.66;98451.56;5068268;28;41969;-85
2021/08/05 00:12:24;;;;;;;1.50;0.50;;;;;;;18.85;70.08;98458.44;5052392;28;41595;-84
2021/08/05 00:14:51;;;;;;;0.50;0.50;;;;;;;18.80;70.01;98450.88;5053598;28;38863;-86
2021/08/05 00:17:19;;;;;;;0.83;0.70;;;;;;;18.80;69.87;98455.38;5052910;28;40855;-86
2021/08/05 00:19:46;;;;;;;0.50;0.50;;;;;;;18.77;69.90;98456.56;5069469;28;42807;-84
2021/08/05 00:22:14;;;;;;;0.40;0.40;;;;;;;18.77;70.08;98456.56;5069022;28;42228;-85
2021/08/05 00:24:43;;;;;;;1.37;0.77;;;;;;;18.77;70.51;98450.34;5052814;28;38960;-84
2021/08/05 00:27:11;;;;;;;0.60;0.60;;;;;;;18.84;70.37;98462.97;5069040;28;41599;-85
2021/08/05 00:29:38;;;;;;;1.10;1.00;;;;;;;18.66;70.49;98438.06;5052975;28;42070;-84
2021/08/05 00:32:07;;;;;;;0.57;0.50;;;;;;;18.83;70.49;98460.44;5069044;28;41532;-84
2021/08/05 00:34:35;;;;;;;1.80;1.37;;;;;;;18.74;70.30;98451.50;5052516;28;39579;-85
2021/08/05 00:37:03;;;;;;;0.60;0.60;;;;;;;18.67;70.21;98432.50;5068496;28;42088;-85
2021/08/05 00:39:31;;;;;;;0.53;0.53;;;;;;;18.84;70.36;98462.13;5068822;28;43045;-85
2021/08/05 00:42:01;;;;;;;0.90;0.87;;;;;;;18.82;69.96;98459.59;5050827;28;42719;-83
2021/08/05 00:44:28;;;;;;;0.47;0.47;;;;;;;18.79;70.04;98454.53;5068677;28;40043;-84
2021/08/05 00:46:56;;;;;;;0.70;0.67;;;;;;;18.77;70.14;98447.69;5068351;28;41731;-85
2021/08/05 00:49:23;;;;;;;0.40;0.40;;;;;;;18.77;70.14;98450.34;5069057;28;43292;-84
2021/08/05 00:51:51;;;;;;;0.70;0.70;;;;;;;18.73;70.23;98449.81;5067945;28;42226;-85
2021/08/05 00:54:19;;;;;;;0.40;0.40;;;;;;;18.63;70.26;98431.16;5068529;28;39953;-86
2021/08/05 00:56:46;;;;;;;0.83;0.80;;;;;;;18.74;70.22;98450.66;5068637;28;42019;-86
2021/08/05 00:59:15;;;;;;;0.93;0.80;;;;;;;18.65;70.07;98436.38;5051570;28;41996;-83
2021/08/05 01:01:47;;;;;;;0.43;0.43;;;;;;;18.72;70.37;98450.81;5052226;28;42345;-86
2021/08/05 01:04:16;;;;;;;0.60;0.60;;;;;;;18.67;70.36;98433.53;5069056;28;40211;-85
2021/08/05 01:06:53;;;;;;;1.63;0.80;;;;;;;18.70;70.29;98444.75;5051969;28;40784;-86
2021/08/05 01:09:26;;;;;;;0.63;0.63;;;;;;;18.68;70.10;98438.72;5068948;28;43023;-85
2021/08/05 01:12:01;;;;;;;0.60;0.60;;;;;;;18.65;70.87;98421.13;5068585;28;42421;-84
2021/08/05 01:14:35;;;;;;;0.70;0.70;;;;;;;18.53;70.60;98397.38;5052249;28;39135;-86
2021/08/05 01:17:04;;;;;;;0.50;0.50;;;;;;;18.64;70.59;98413.22;5069054;28;41902;-84
2021/08/05 01:19:38;;;;;;;0.53;0.53;;;;;;;18.54;70.52;98396.38;5069616;28;43963;-84
2021/08/05 01:22:14;;;;;;;0.50;0.50;;;;;;;18.62;70.63;98404.47;5068698;28;41410;-83
2021/08/05 01:24:51;;;;;;;0.50;0.50;;;;;;;18.53;70.79;98400.03;5068574;28;38931;-83
2021/08/05 01:27:21;;;;;;;1.07;1.00;;;;;;;18.48;70.71;98402.34;5068236;28;42757;-84
2021/08/05 01:29:49;;;;;;;0.97;0.97;;;;;;;18.51;70.79;98410.06;5052684;28;41787;-85
2021/08/05 01:32:17;;;;;;;0.60;0.60;;;;;;;18.41;70.62;98401.28;5051732;28;42541;-85
2021/08/05 01:34:45;;;;;;;0.53;0.53;;;;;;;18.36;70.74;98395.53;5051799;28;38968;-84
2021/08/05 01:37:13;;;;;;;0.97;0.97;;;;;;;18.45;70.88;98413.38;5067878;28;40711;-85
2021/08/05 01:39:42;;;;;;;0.40;0.40;;;;;;;18.35;70.70;98399.22;5067757;28;42954;-84
2021/08/05 01:42:10;;;;;;;0.73;0.70;;;;;;;18.33;70.99;98411.94;5067831;28;42563;-84
2021/08/05 01:44:45;;;;;;;0.60;0.60;;;;;;;18.30;70.93;98408.56;5068670;28;40802;-83
2021/08/05 01:47:14;;;;;;;0.67;0.67;;;;;;;18.31;71.02;98412.94;5067511;28;41717;-84
2021/08/05 01:49:43;;;;;;;0.90;0.90;;;;;;;18.19;71.68;98387.38;5052042;28;41210;-84
2021/08/05 01:52:13;;;;;;;1.03;0.70;;;;;;;18.25;71.97;98410.03;5050507;28;41304;-85
2021/08/05 01:54:41;;;;;;;0.70;0.70;;;;;;;18.12;71.74;98386.31;5071462;28;42298;-83
2021/08/05 01:57:10;;;;;;;0.60;0.60;;;;;;;18.19;72.18;98406.13;5072841;28;42053;-85
2021/08/05 01:59:37;;;;;;;0.80;0.80;;;;;;;18.17;71.73;98400.09;5054976;28;41869;-85
2021/08/05 02:02:09;;;;;;;0.80;0.80;;;;;;;18.09;72.00;98400.03;5071725;28;43250;-85
2021/08/05 02:04:46;;;;;;;0.60;0.60;;;;;;;18.10;71.63;98401.69;5054770;28;38985;-84
2021/08/05 02:07:18;;;;;;;0.73;0.73;;;;;;;18.12;71.89;98399.72;5071735;28;42611;-84
2021/08/05 02:09:51;;;;;;;0.80;0.77;;;;;;;18.12;71.97;98402.41;5071185;28;43165;-85
2021/08/05 02:12:19;;;;;;;1.10;1.00;;;;;;;18.05;71.63;98395.13;5054333;28;42377;-85
2021/08/05 02:14:47;;;;;;;0.57;0.57;;;;;;;18.07;71.56;98401.16;5054676;28;39986;-83
2021/08/05 02:17:17;;;;;;;0.40;0.40;;;;;;;18.11;71.75;98410.59;5071438;28;41606;-84
2021/08/05 02:19:46;;;;;;;0.83;0.83;;;;;;;18.10;71.30;98414.25;5070451;28;42949;-85
2021/08/05 02:22:18;;;;;;;1.13;1.03;;;;;;;18.08;71.39;98416.25;5054250;28;41424;-84
2021/08/05 02:24:46;;;;;;;0.77;0.77;;;;;;;18.06;71.61;98410.19;5072602;28;40290;-85
2021/08/05 02:27:14;;;;;;;0.60;0.60;;;;;;;17.97;71.42;98400.41;5054297;28;41714;-85
2021/08/05 02:29:42;;;;;;;0.60;0.60;;;;;;;17.95;71.37;98395.19;5054403;28;41937;-84
2021/08/05 02:32:10;;;;;;;0.83;0.70;;;;;;;18.04;71.33;98409.53;5053538;28;41660;-84
2021/08/05 02:34:39;;;;;;;0.30;0.30;;;;;;;18.01;71.49;98405.31;5054794;28;39542;-85
2021/08/05 02:37:07;;;;;;;0.60;0.60;;;;;;;17.90;71.58;98393.00;5070631;28;40216;-84
2021/08/05 02:39:35;;;;;;;0.50;0.50;;;;;;;17.99;71.83;98401.09;5054200;28;41686;-85
2021/08/05 02:42:04;;;;;;;0.60;0.57;;;;;;;17.94;71.58;98398.88;5053478;28;41576;-86
2021/08/05 02:44:33;;;;;;;0.90;0.90;;;;;;;17.84;71.62;98382.88;5054511;28;39260;-83
2021/08/05 02:47:01;;;;;;;0.70;0.70;;;;;;;17.87;72.04;98389.78;5053125;28;40845;-84
2021/08/05 02:49:31;;;;;;;0.77;0.70;;;;;;;17.78;71.88;98378.16;5070754;28;41842;-85
2021/08/05 02:52:01;;;;;;;0.90;0.90;;;;;;;17.73;71.82;98369.72;5070386;28;42410;-86
2021/08/05 02:54:29;;;;;;;0.83;0.80;;;;;;;17.79;71.77;98379.84;5069920;28;39817;-86
2021/08/05 02:56:58;;;;;;;0.87;0.87;;;;;;;17.74;71.73;98381.28;5070712;28;40760;-83
2021/08/05 02:59:27;;;;;;;1.07;1.03;;;;;;;17.56;72.15;98362.47;5053225;28;43077;-84
2021/08/05 03:01:55;;;;;;;0.60;0.60;;;;;;;17.70;72.05;98385.25;5069699;28;41251;-84
2021/08/05 03:04:22;;;;;;;0.73;0.50;;;;;;;17.64;72.30;98380.50;5052908;28;38908;-83
2021/08/05 03:06:50;;;;;;;0.63;0.63;;;;;;;17.56;72.57;98374.03;5052919;28;41085;-82
2021/08/05 03:09:19;;;;;;;0.63;0.63;;;;;;;17.62;72.34;98382.47;5054203;28;42741;-86
2021/08/05 03:11:46;;;;;;;0.93;0.87;;;;;;;17.51;72.54;98365.63;5071004;28;42278;-83
2021/08/05 03:14:14;;;;;;;0.87;0.87;;;;;;;17.53;72.63;98369.00;5053639;28;38858;-86
2021/08/05 03:16:42;;;;;;;0.63;0.60;;;;;;;17.58;72.78;98377.41;5070594;28;41949;-85
2021/08/05 03:19:10;;;;;;;0.50;0.50;;;;;;;17.45;72.73;98357.34;5053107;28;41639;-84
2021/08/05 03:21:37;;;;;;;0.63;0.50;;;;;;;17.54;72.44;98375.19;5053846;28;41137;-86
2021/08/05 03:24:06;;;;;;;0.60;0.60;;;;;;;17.52;72.53;98377.19;5070126;28;39875;-84
2021/08/05 03:26:35;;;;;;;1.50;1.03;;;;;;;17.44;72.90;98359.16;5053271;28;40777;-85
2021/08/05 03:29:02;;;;;;;0.60;0.60;;;;;;;17.37;72.72;98355.44;5071877;28;42745;-85
2021/08/05 03:31:30;;;;;;;0.60;0.60;;;;;;;17.37;72.71;98358.09;5054950;28;41283;-84
2021/08/05 03:33:58;;;;;;;0.90;0.73;;;;;;;17.37;73.15;98363.47;5070664;28;39858;-86
2021/08/05 03:36:26;;;;;;;0.40;0.40;;;;;;;17.31;72.97;98369.41;5070454;28;41905;-85
2021/08/05 03:38:54;;;;;;;0.60;0.60;;;;;;;17.08;73.21;98336.84;5070635;28;41797;-85
2021/08/05 03:41:21;;;;;;;0.70;0.70;;;;;;;17.09;73.18;98348.41;5069463;28;43298;-85
2021/08/05 03:43:50;;;;;;;0.73;0.60;;;;;;;17.17;73.47;98373.44;5070631;28;39861;-86
2021/08/05 03:46:18;;;;;;;1.17;0.90;;;;;;;17.04;73.50;98356.06;5052773;28;42023;-84
2021/08/05 03:48:45;;;;;;;0.77;0.70;;;;;;;17.01;73.15;98359.88;5052599;28;42067;-85
2021/08/05 03:51:13;;;;;;;0.90;0.90;;;;;;;17.06;73.11;98365.59;5086560;28;43163;-84
2021/08/05 03:53:41;;;;;;;0.70;0.60;;;;;;;17.04;73.32;98367.59;5052652;28;41635;-85
2021/08/05 03:56:08;;;;;;;0.40;0.40;;;;;;;16.89;73.38;98353.03;5069673;28;40764;-84
2021/08/05 03:58:36;;;;;;;0.87;0.60;;;;;;;16.99;73.09;98369.00;5070549;28;43155;-86
2021/08/05 04:01:05;;;;;;;0.50;0.50;;;;;;;16.97;73.08;98371.00;5052593;28;41242;-86
2021/08/05 04:03:33;;;;;;;0.97;0.87;;;;;;;16.86;73.35;98358.66;5052476;28;38918;-84
2021/08/05 04:06:01;;;;;;;0.63;0.57;;;;;;;16.83;73.34;98359.78;5069114;28;42757;-85
2021/08/05 04:08:28;;;;;;;0.70;0.70;;;;;;;16.80;73.19;98357.44;5070609;28;43302;-86
2021/08/05 04:10:55;;;;;;;0.90;0.87;;;;;;;16.81;73.11;98361.75;5074446;28;41513;-85
2021/08/05 04:13:23;;;;;;;1.30;0.83;;;;;;;16.82;73.20;98358.09;5078100;28;40009;-86
2021/08/05 04:15:51;;;;;;;1.47;0.90;;;;;;;16.73;73.46;98350.97;5076937;28;41479;-82
2021/08/05 04:18:20;;;;;;;0.60;0.57;;;;;;;16.78;73.47;98351.38;5077362;28;42716;-86
2021/08/05 04:20:47;;;;;;;0.90;0.90;;;;;;;16.85;73.40;98368.50;5078092;28;42302;-85
2021/08/05 04:23:15;;;;;;;0.70;0.70;;;;;;;16.85;73.54;98363.16;5094880;28;40190;-84
2021/08/05 04:25:43;;;;;;;0.83;0.80;;;;;;;16.83;73.55;98365.13;5109569;28;42462;-83
2021/08/05 04:28:14;;;;;;;0.60;0.60;;;;;;;16.79;73.40;98357.56;5081205;28;43684;-84
2021/08/05 04:30:42;;;;;;;2.10;0.73;;;;;;;16.83;73.81;98359.78;5081416;28;42699;-84
2021/08/05 04:33:09;;;;;;;0.63;0.63;;;;;;;16.82;73.82;98363.44;5096694;28;40162;-86
2021/08/05 04:35:38;;;;;;;1.10;1.00;;;;;;;16.87;74.24;98376.38;5080007;28;41074;-84
2021/08/05 04:38:07;;;;;;;0.60;0.60;;;;;;;16.79;74.26;98369.13;5078914;28;42150;-83
2021/08/05 04:40:35;;;;;;;0.80;0.80;;;;;;;16.88;73.88;98381.59;5058490;28;41278;-86
2021/08/05 04:43:03;;;;;;;0.77;0.77;;;;;;;16.88;74.20;98384.28;5052184;28;38981;-84
2021/08/05 04:45:31;;;;;;;1.10;1.00;;;;;;;16.80;74.03;98376.16;5051601;28;40992;-85
2021/08/05 04:48:00;;;;;;;0.70;0.70;;;;;;;16.86;74.04;98380.91;5051910;28;41860;-86
2021/08/05 04:50:31;;;;;;;1.10;0.90;;;;;;;16.86;74.27;98386.25;5068277;28;43225;-85
2021/08/05 04:53:00;;;;;;;1.47;1.00;;;;;;;16.82;74.02;98379.50;5051525;28;39161;-84
2021/08/05 04:55:29;;;;;;;0.80;0.80;;;;;;;16.80;74.26;98378.81;5069581;28;41784;-84
2021/08/05 04:57:58;;;;;;;0.97;0.87;;;;;;;16.71;74.48;98370.81;5069677;28;42972;-84
2021/08/05 05:00:27;;;;;;;0.80;0.70;;;;;;;16.73;74.05;98380.38;5051951;28;41283;-84
2021/08/05 05:02:55;;;;;;;0.60;0.60;;;;;;;16.76;73.98;98385.44;5035210;28;39005;-85
2021/08/05 05:05:24;;;;;;;0.70;0.60;;;;;;;16.71;74.04;98371.66;5051854;28;41422;-84
2021/08/05 05:07:53;;;;;;;1.30;1.20;;;;;;;16.66;74.18;98371.28;5067383;28;43685;-84
2021/08/05 05:10:24;;;;;;;1.00;1.00;;;;;;;16.74;74.26;98379.41;5051954;28;42148;-85
2021/08/05 05:12:51;;;;;;;1.33;1.20;;;;;;;16.70;74.49;98364.63;5069260;28;40068;-86
2021/08/05 05:15:20;;;;;;;0.77;0.77;;;;;;;16.81;74.03;98377.00;5051610;28;40855;-84
2021/08/05 05:17:48;;;;;;;0.80;0.80;;;;;;;16.88;74.34;98381.59;5068685;28;44136;-85
2021/08/05 05:20:16;;;;;;;0.90;0.70;;;;;;;16.88;74.29;98364.72;5069853;28;42623;-85
2021/08/05 05:22:46;;;;;;;1.60;1.50;;;;;;;17.00;74.67;98362.69;5069627;28;40108;-84
2021/08/05 05:25:14;;;;;;;0.60;0.60;;;;;;;17.20;74.67;98377.63;5051526;28;40849;-84
2021/08/05 05:27:44;;;;;;;1.40;1.30;;;;;;;17.34;74.35;98373.63;5051660;28;41685;-85
2021/08/05 05:30:13;;;;;;;1.73;1.60;;;;;;;17.43;74.02;98373.53;5068572;28;43291;-86
2021/08/05 05:32:43;;;;;;;1.20;1.10;;;;;;;17.58;73.96;98377.41;5067378;28;40301;-86
2021/08/05 05:35:12;;;;;;;0.83;0.83;;;;;;;17.60;73.80;98356.66;5084731;28;41547;-85
2021/08/05 05:37:40;;;;;;;1.00;0.83;;;;;;;17.71;73.33;98354.78;5067484;28;41708;-84
2021/08/05 05:40:09;;;;;;;1.23;0.87;;;;;;;17.88;73.10;98362.00;5051686;28;42116;-84
2021/08/05 05:42:37;;;;;;;1.30;1.00;;;;;;;17.99;72.91;98353.72;5068446;28;39158;-86
2021/08/05 05:45:08;;;;;;;0.70;0.70;;;;;;;18.21;72.90;98363.09;5051416;28;41950;-84
2021/08/05 05:47:36;;;;;;;1.27;1.17;;;;;;;18.35;72.81;98364.38;5067526;28;42960;-84
2021/08/05 05:50:05;;;;;;;1.10;1.00;;;;;;;18.43;72.26;98342.97;5050356;28;42225;-85
2021/08/05 05:52:33;;;;;;;1.20;1.10;;;;;;;18.66;72.04;98357.59;5049619;28;40068;-85
2021/08/05 05:55:01;;;;;;;1.10;1.00;;;;;;;18.71;71.69;98339.16;5067701;28;41830;-84
2021/08/05 05:57:29;;;;;;;0.93;0.90;;;;;;;18.87;71.61;98358.03;5050989;28;42160;-84
2021/08/05 05:59:57;;;;;;;1.03;0.80;;;;;;;18.84;70.97;98323.47;5052032;28;41192;-86
2021/08/05 06:02:26;;;;;;;1.30;1.20;;;;;;;19.04;70.89;98355.44;5068447;28;41115;-86
2021/08/05 06:04:53;;;;;;;0.97;0.97;;;;;;;19.01;70.66;98351.22;5050452;28;40565;-85
2021/08/05 06:07:22;;;;;;;1.20;1.20;;;;;;;19.06;70.68;98342.66;5067718;28;43061;-85
2021/08/05 06:09:50;;;;;;;0.50;0.50;;;;;;;19.19;70.08;98348.41;5067627;28;42495;-86
2021/08/05 06:12:18;;;;;;;1.67;1.00;;;;;;;19.40;70.04;98362.28;5068091;28;38947;-86
2021/08/05 06:14:46;;;;;;;1.00;0.97;;;;;;;19.50;69.49;98357.63;5051431;28;40950;-85
2021/08/05 06:17:14;;;;;;;1.17;1.07;;;;;;;19.44;69.54;98341.28;5067716;28;42858;-85
2021/08/05 06:19:43;;;;;;;0.83;0.83;;;;;;;19.53;69.28;98362.66;5068632;28;42268;-85
2021/08/05 06:22:11;;;;;;;0.57;0.57;;;;;;;19.47;69.33;98344.47;5050172;28;40189;-84
2021/08/05 06:24:39;;;;;;;1.53;1.43;;;;;;;19.61;68.94;98351.09;5068187;28;41597;-85
2021/08/05 06:27:07;;;;;;;1.27;0.97;;;;;;;20.01;67.92;98369.97;5067638;28;41879;-85
2021/08/05 06:29:34;;;;;;;1.30;1.20;;;;;;;20.42;67.32;98370.81;5051096;28;40976;-87
2021/08/05 06:32:02;;;;;;;1.10;1.00;;;;;;;20.58;66.36;98347.56;5050708;28;40031;-87
2021/08/05 06:34:30;;;;;;;1.27;1.27;;;;;;;20.85;65.47;98375.94;5049834;28;40201;-85
2021/08/05 06:37:00;;;;;;;0.80;0.80;;;;;;;21.06;65.09;98374.34;5050579;28;42903;-84
2021/08/05 06:39:27;;;;;;;1.10;1.00;;;;;;;21.43;63.48;98373.72;5034711;28;41253;-87
2021/08/05 06:41:55;;;;;;;1.63;0.97;;;;;;;21.88;62.92;98373.97;5053195;28;39314;-86
2021/08/05 06:44:22;;;;;;;1.17;1.07;;;;;;;21.83;62.09;98366.41;5055524;28;40909;-85
2021/08/05 06:46:50;;;;;;;1.20;1.10;;;;;;;22.06;62.21;98371.84;5072353;28;43045;-85
2021/08/05 06:49:18;;;;;;;1.27;0.90;;;;;;;22.37;61.89;98364.50;5071316;28;43108;-85
2021/08/05 06:51:46;;;;;;;1.57;1.20;;;;;;;22.51;60.64;98360.97;5070053;28;39943;-85
2021/08/05 06:54:25;;;;;;;1.17;1.07;;;;;;;22.87;59.89;98371.13;5055493;28;40680;-85
2021/08/05 06:56:53;;;;;;;1.33;1.23;;;;;;;23.01;58.68;98372.97;5069920;28;41584;-87
2021/08/05 06:59:21;;;;;;;1.40;1.00;;;;;;;23.21;58.52;98379.50;5053374;28;42469;-85
2021/08/05 07:01:49;;;;;;;1.10;1.00;;;;;;;23.21;57.93;98357.88;5052552;28;39729;-88
2021/08/05 07:04:16;;;;;;;0.90;0.90;;;;;;;23.48;57.42;98380.66;5070357;28;41903;-86
2021/08/05 07:06:44;;;;;;;0.90;0.90;;;;;;;23.60;56.56;98367.53;5070196;28;42340;-85
2021/08/05 07:09:12;;;;;;;1.10;1.00;;;;;;;24.13;55.36;98389.72;5054340;28;42507;-83
2021/08/05 07:11:41;;;;;;;1.10;0.80;;;;;;;24.18;54.04;98355.66;5071062;28;40121;-86
2021/08/05 07:14:10;;;;;;;1.67;1.00;;;;;;;24.63;52.91;98381.44;5053663;28;41106;-86
2021/08/05 07:16:37;;;;;;;3.50;2.10;;;;;;;24.63;52.55;98372.47;5053033;28;42586;-85
2021/08/05 07:19:05;;;;;;;1.30;1.20;;;;;;;25.04;52.88;98394.25;5053357;28;41451;-87
2021/08/05 07:21:33;;;;;;;1.10;1.00;;;;;;;25.14;52.33;98367.63;5053545;28;38927;-85
2021/08/05 07:24:01;;;;;;;1.27;1.13;;;;;;;25.24;50.99;98373.53;5052475;28;40806;-84
2021/08/05 07:26:30;;;;;;;0.93;0.90;;;;;;;25.43;50.80;98407.19;5053440;28;42056;-85
2021/08/05 07:28:59;;;;;;;1.23;1.13;;;;;;;25.56;50.35;98403.72;5036718;28;42483;-86
2021/08/05 07:31:27;;;;;;;1.30;1.20;;;;;;;25.69;50.82;98392.94;5052671;28;39136;-86
2021/08/05 07:33:55;;;;;;;1.10;1.00;;;;;;;25.84;49.65;98385.47;5086647;28;41808;-86
2021/08/05 07:36:24;;;;;;;1.43;1.17;;;;;;;26.11;49.14;98399.94;5052717;28;43044;-85
2021/08/05 07:38:52;;;;;;;1.33;0.90;;;;;;;26.00;49.01;98357.13;5069741;28;41020;-86
2021/08/05 07:41:20;;;;;;;1.23;0.83;;;;;;;26.14;48.85;98328.97;5052882;28;39790;-87
2021/08/05 07:43:48;;;;;;;1.30;1.00;;;;;;;26.81;48.19;98404.81;5053612;28;41117;-84
2021/08/05 07:46:18;;;;;;;0.53;0.53;;;;;;;27.14;47.90;98382.22;5069468;28;42825;-85
2021/08/05 07:48:54;;;;;;;0.93;0.67;;;;;;;27.68;46.26;98411.78;5069950;28;43206;-86
2021/08/05 07:51:22;;;;;;;0.83;0.83;;;;;;;27.96;44.68;98373.28;5068958;28;39941;-85
2021/08/05 07:53:50;;;;;;;1.10;0.90;;;;;;;28.15;42.74;98358.75;5052191;28;42116;-84
2021/08/05 07:56:18;;;;;;;1.30;1.20;;;;;;;28.70;42.35;98427.06;5052139;28;41822;-85
2021/08/05 07:58:46;;;;;;;0.93;0.93;;;;;;;28.92;42.75;98409.31;5069318;28;42284;-85
2021/08/05 08:01:14;;;;;;;1.17;1.07;;;;;;;29.04;41.44;98405.84;5052356;28;39145;-87
2021/08/05 08:03:43;;;;;;;1.40;1.30;;;;;;;29.59;40.74;98421.19;5070341;28;40605;-86
2021/08/05 08:06:11;;;;;;;1.23;1.13;;;;;;;29.86;39.98;98437.25;5070511;28;42826;-86
2021/08/05 08:08:39;;;;;;;1.17;1.07;;;;;;;29.84;39.87;98439.38;5052927;28;43025;-86
2021/08/05 08:11:07;;;;;;;1.57;1.33;;;;;;;29.41;40.04;98423.94;5070795;28;40295;-86
2021/08/05 08:13:35;;;;;;;1.57;0.93;;;;;;;29.07;41.77;98421.72;5052785;28;40635;-84
2021/08/05 08:16:03;;;;;;;1.33;1.23;;;;;;;28.70;42.80;98410.72;5052272;28;42768;-84
2021/08/05 08:18:32;;;;;;;0.93;0.83;;;;;;;28.36;43.75;98400.31;5052501;28;42126;-86
2021/08/05 08:21:01;;;;;;;1.40;1.30;;;;;;;28.32;43.43;98407.22;5085638;28;39765;-86
2021/08/05 08:23:29;;;;;;;1.00;0.93;;;;;;;28.04;43.41;98391.28;5052458;28;40934;-85
2021/08/05 08:25:57;;;;;;;1.43;1.20;;;;;;;28.45;43.27;98405.25;5068912;28;42650;-85
2021/08/05 08:28:25;;;;;;;1.33;1.23;;;;;;;28.71;42.52;98401.47;5069287;28;42363;-86
2021/08/05 08:30:52;;;;;;;1.00;0.90;;;;;;;29.02;41.79;98407.94;5069383;28;40060;-86
2021/08/05 08:33:20;;;;;;;1.60;1.50;;;;;;;29.61;41.00;98416.34;5051630;28;40973;-83
2021/08/05 08:35:48;;;;;;;1.50;1.37;;;;;;;30.85;37.76;98436.66;5051677;28;43068;-86
2021/08/05 08:38:19;;;;;;;1.53;1.33;;;;;;;32.41;35.10;98432.97;5052245;28;42534;-85
2021/08/05 08:40:47;;;;;;;1.67;1.50;;;;;;;33.70;33.30;98443.81;5069914;28;39689;-84
2021/08/05 08:43:15;;;;;;;2.40;1.57;;;;;;;33.68;33.14;98445.16;5070012;28;42649;-86
2021/08/05 08:45:45;;;;;;;1.20;1.10;;;;;;;33.07;34.18;98442.34;5068121;28;42713;-85
2021/08/05 08:48:13;;;;;;;1.20;1.10;;;;;;;32.11;35.42;98433.22;5069255;28;42182;-84
2021/08/05 08:50:42;;;;;;;1.87;1.40;;;;;;;31.41;35.96;98424.31;5067944;28;39135;-84
2021/08/05 08:53:14;;;;;;;1.20;1.10;;;;;;;30.41;37.46;98412.56;5068249;28;41655;-85
2021/08/05 08:55:48;;;;;;;1.17;1.07;;;;;;;30.44;38.02;98395.69;5068805;28;42205;-86
2021/08/05 08:58:18;;;;;;;1.13;1.03;;;;;;;31.02;37.66;98404.81;5069173;28;42486;-85
2021/08/05 09:00:46;;;;;;;1.00;1.00;;;;;;;31.63;35.67;98408.94;5052077;28;39928;-85
2021/08/05 09:03:15;;;;;;;1.00;0.90;;;;;;;32.03;34.38;98408.94;5051089;28;40595;-86
2021/08/05 09:05:44;;;;;;;1.20;1.10;;;;;;;32.08;32.57;98419.16;5052135;28;43125;-85
2021/08/05 09:08:12;;;;;;;1.20;1.10;;;;;;;32.13;33.62;98422.84;5069920;28;42138;-85
2021/08/05 09:10:40;;;;;;;0.90;0.90;;;;;;;32.34;34.87;98412.28;5068639;28;38971;-85
2021/08/05 09:13:10;;;;;;;1.13;1.10;;;;;;;33.11;33.36;98424.31;5067754;28;41587;-86
2021/08/05 09:15:40;;;;;;;1.00;0.97;;;;;;;33.46;32.93;98414.94;5068477;28;42046;-85
2021/08/05 09:18:31;;;;;;;0.90;0.90;;;;;;;33.93;31.02;98433.69;5050978;28;42441;-84
2021/08/05 09:21:14;;;;;;;1.30;1.10;;;;;;;34.11;30.91;98428.69;5067921;28;39786;-85
2021/08/05 09:23:54;;;;;;;1.07;1.07;;;;;;;34.10;31.07;98427.03;5085816;28;41854;-87
2021/08/05 09:26:31;;;;;;;0.83;0.83;;;;;;;34.56;29.60;98444.84;5051674;28;41780;-84
2021/08/05 09:29:20;;;;;;;1.00;1.00;;;;;;;34.98;29.78;98427.63;5051200;28;41064;-85
2021/08/05 09:31:58;;;;;;;1.00;0.97;;;;;;;34.72;30.32;98403.72;5051751;28;38942;-85
2021/08/05 09:34:33;;;;;;;1.23;0.97;;;;;;;33.94;30.55;98389.47;5050823;28;41837;-85
2021/08/05 09:37:22;;;;;;;0.90;0.90;;;;;;;33.68;31.59;98396.53;5054393;28;44013;-85
2021/08/05 09:39:54;;;;;;;1.10;1.10;;;;;;;32.97;32.44;98381.81;5067239;28;41238;-85
2021/08/05 09:42:22;;;;;;;1.23;1.13;;;;;;;32.40;33.06;98367.41;5051191;28;40238;-86
2021/08/05 09:44:54;;;;;;;0.80;0.80;;;;;;;32.13;33.90;98379.00;5050305;28;41793;-85
2021/08/05 09:47:23;;;;;;;0.73;0.73;;;;;;;31.59;33.19;98361.19;5050658;28;42813;-85
2021/08/05 09:49:57;;;;;;;0.73;0.73;;;;;;;31.29;35.09;98375.06;5050980;28;41509;-85
2021/08/05 09:52:29;;;;;;;1.10;1.00;;;;;;;30.68;35.54;98367.34;5068421;28;39388;-85
2021/08/05 09:54:57;;;;;;;0.80;0.80;;;;;;;30.37;36.65;98363.00;5050946;28;42392;-84
2021/08/05 09:57:26;;;;;;;0.80;0.80;;;;;;;30.06;36.82;98369.56;5068314;28;43138;-84
2021/08/05 10:00:00;;;;;;;1.07;1.03;;;;;;;29.90;37.51;98345.63;5053139;28;43181;-84
2021/08/05 10:02:39;;;;;;;0.93;0.93;;;;;;;30.17;36.69;98357.00;5069779;28;38987;-86
2021/08/05 10:05:12;;;;;;;1.20;1.20;;;;;;;30.84;36.05;98358.44;5050608;28;40848;-84
2021/08/05 10:07:41;;;;;;;1.20;1.10;;;;;;;31.13;36.44;98355.84;5068548;28;42976;-84
2021/08/05 10:10:10;;;;;;;1.03;0.97;;;;;;;31.19;35.86;98355.69;5067538;28;41149;-84
2021/08/05 10:12:39;;;;;;;1.07;0.97;;;;;;;31.60;35.20;98354.66;5067883;28;38875;-84
2021/08/05 10:15:12;;;;;;;1.67;1.20;;;;;;;32.14;33.41;98368.88;5052412;28;40943;-84
2021/08/05 10:17:41;;;;;;;0.93;0.93;;;;;;;32.20;32.90;98361.59;5071804;28;42643;-85
2021/08/05 10:20:11;;;;;;;1.23;1.13;;;;;;;33.02;33.00;98368.16;5071608;28;42296;-84
2021/08/05 10:22:39;;;;;;;0.90;0.90;;;;;;;34.46;30.69;98380.69;5053916;28;39968;-85
2021/08/05 10:25:10;;;;;;;1.00;0.90;;;;;;;35.89;27.31;98388.78;5088741;28;42809;-85
2021/08/05 10:27:39;;;;;;;1.07;1.07;;;;;;;37.24;27.76;98388.34;5071136;28;42794;-85
2021/08/05 10:30:12;;;;;;;1.30;1.00;;;;;;;38.45;25.36;98392.53;5071350;28;41859;-85
2021/08/05 10:32:42;;;;;;;1.23;0.80;;;;;;;38.46;25.79;98402.47;5070669;28;40003;-87
2021/08/05 10:35:12;;;;;;;0.80;0.80;;;;;;;38.19;25.12;98394.66;5071869;28;41283;-84
2021/08/05 10:37:40;;;;;;;0.80;0.80;;;;;;;37.13;26.38;98392.22;5072410;28;42781;-86
2021/08/05 10:40:13;;;;;;;1.00;1.00;;;;;;;35.90;27.24;98374.72;5054510;28;41382;-88
2021/08/05 10:42:43;;;;;;;1.00;1.00;;;;;;;36.68;26.35;98369.88;5070835;28;41858;-84
2021/08/05 10:45:19;;;;;;;0.80;0.80;;;;;;;37.05;26.48;98357.72;5070202;28;41142;-84
2021/08/05 10:47:53;;;;;;;1.00;1.00;;;;;;;37.24;25.92;98339.47;5038034;28;42040;-84
2021/08/05 10:50:24;;;;;;;0.77;0.77;;;;;;;37.53;26.12;98363.69;5070580;28;42520;-85
2021/08/05 10:52:55;;;;;;;0.80;0.80;;;;;;;37.50;24.56;98367.84;5054016;28;39024;-85
2021/08/05 10:55:37;;;;;;;1.10;0.93;;;;;;;36.64;25.70;98374.28;5054019;28;40766;-85
2021/08/05 10:58:14;;;;;;;0.80;0.80;;;;;;;36.44;25.41;98379.81;5052981;28;42030;-84
2021/08/05 11:01:06;;;;;;;0.80;0.80;;;;;;;37.42;24.27;98379.47;5053842;28;41383;-83
2021/08/05 11:03:52;;;;;;;1.00;0.90;;;;;;;38.13;23.33;98387.47;5054184;28;41038;-85
2021/08/05 11:06:33;;;;;;;0.70;0.70;;;;;;;37.66;23.84;98369.47;5070070;28;41843;-85
2021/08/05 11:09:26;;;;;;;0.60;0.60;;;;;;;37.22;24.41;98366.53;5053224;28;43090;-85
2021/08/05 11:11:55;;;;;;;0.90;0.90;;;;;;;37.36;24.72;98355.72;5062229;28;41125;-84
2021/08/05 11:14:39;;;;;;;0.70;0.70;;;;;;;37.47;25.88;98331.63;5054441;28;38815;-85
2021/08/05 11:17:09;;;;;;;0.70;0.70;;;;;;;38.06;24.42;98349.06;5070794;28;41878;-84
2021/08/05 11:19:42;;;;;;;2.17;1.00;;;;;;;38.65;22.57;98345.34;5071708;28;42658;-86
2021/08/05 11:22:50;;;;;;;0.65;0.65;;;;;;;39.40;23.94;98347.63;5070395;28;42016;-86
2021/08/05 11:25:19;;;;;;;0.82;0.82;;;;;;;40.08;22.14;98359.25;5070863;28;40639;-83
2021/08/05 11:28:22;;;;;;;0.73;0.73;;;;;;;39.13;22.16;98359.28;5070729;28;41840;-85
2021/08/05 11:30:55;;;;;;;1.20;1.10;;;;;;;38.58;22.77;98319.09;5068838;28;42847;-84
2021/08/05 11:33:51;;;;;;;0.70;0.68;;;;;;;38.42;25.17;98329.47;5069172;28;41209;-84
2021/08/05 11:36:22;;;;;;;0.70;0.70;;;;;;;38.34;24.68;98316.22;5053376;28;39547;-83
2021/08/05 11:39:30;;;;;;;0.68;0.68;;;;;;;38.41;24.65;98325.03;5053397;28;40918;-84
2021/08/05 11:42:03;;;;;;;0.80;0.80;;;;;;;38.41;25.82;98314.81;5053084;28;42066;-86
2021/08/05 11:44:38;;;;;;;1.00;1.00;;;;;;;38.19;25.37;98310.84;5069723;28;42458;-84
2021/08/05 11:47:24;;;;;;;0.80;0.80;;;;;;;37.70;25.63;98267.47;5052022;28;38992;-86